createdAt,value
2022-09-14T00:01:30.293Z,1.95
2022-09-14T00:03:59.545Z,2.13
2022-09-14T00:06:27.209Z,1.92
2022-09-14T00:08:55.415Z,2.20
2022-09-14T00:11:23.850Z,2.45
2022-09-14T00:13:53.635Z,1.80
2022-09-14T00:16:22.501Z,3.85
2022-09-14T00:18:51.844Z,2.22
2022-09-14T00:21:19.380Z,2.10
2022-09-14T00:23:46.890Z,2.38
2022-09-14T00:26:15.673Z,1.85
2022-09-14T00:28:44.290Z,1.88
2022-09-14T00:31:13.189Z,1.90
2022-09-14T00:33:42.240Z,1.95
2022-09-14T00:36:10.956Z,2.42
2022-09-14T00:38:38.542Z,1.88
2022-09-14T00:41:07.677Z,1.90
2022-09-14T00:43:51.476Z,3.15
2022-09-14T00:46:20.464Z,2.08
2022-09-14T00:48:48.004Z,1.83
2022-09-14T00:51:15.804Z,2.15
2022-09-14T00:53:43.919Z,2.50
2022-09-14T00:56:11.466Z,1.80
2022-09-14T00:58:39.279Z,1.85
2022-09-14T01:01:07.929Z,1.88
2022-09-14T01:03:36.984Z,1.98
2022-09-14T01:06:07.265Z,1.80
2022-09-14T01:08:45.188Z,2.00
2022-09-14T01:11:27.749Z,1.60
2022-09-14T01:13:59.385Z,2.20
2022-09-14T01:16:31.606Z,2.05
2022-09-14T01:19:02.891Z,1.98
2022-09-14T01:21:32.212Z,1.77
2022-09-14T01:24:03.066Z,3.90
2022-09-14T01:26:44.458Z,1.70
2022-09-14T01:29:14.990Z,2.33
2022-09-14T01:31:47.157Z,2.60
2022-09-14T01:34:16.801Z,2.50
2022-09-14T01:36:46.553Z,2.00
2022-09-14T01:39:14.108Z,2.22
2022-09-14T01:41:42.109Z,3.05
2022-09-14T01:44:10.616Z,1.90
2022-09-14T01:46:41.071Z,2.40
2022-09-14T01:49:11.173Z,2.53
2022-09-14T01:51:40.145Z,3.30
2022-09-14T01:54:09.852Z,1.95
2022-09-14T01:56:39.559Z,1.70
2022-09-14T01:59:09.119Z,1.83
2022-09-14T02:01:41.086Z,2.00
2022-09-14T02:04:10.612Z,1.90
2022-09-14T02:06:39.129Z,1.70
2022-09-14T02:09:07.724Z,2.15
2022-09-14T02:11:35.257Z,2.40
2022-09-14T02:14:02.850Z,1.90
2022-09-14T02:16:30.447Z,3.35
2022-09-14T02:19:01.572Z,1.90
2022-09-14T02:21:30.789Z,1.90
2022-09-14T02:23:58.448Z,1.98
2022-09-14T02:26:25.969Z,1.70
2022-09-14T02:28:55.927Z,3.47
2022-09-14T02:31:27.953Z,2.58
2022-09-14T02:34:01.269Z,2.65
2022-09-14T02:36:32.619Z,2.00
2022-09-14T02:39:03.272Z,1.70
2022-09-14T02:41:37.204Z,2.15
2022-09-14T02:44:07.573Z,2.20
2022-09-14T02:46:38.312Z,2.10
2022-09-14T02:49:10.749Z,1.75
2022-09-14T02:51:41.942Z,2.05
2022-09-14T02:54:12.360Z,3.05
2022-09-14T02:56:39.892Z,2.00
2022-09-14T02:59:07.437Z,1.75
2022-09-14T03:01:35.317Z,2.00
2022-09-14T03:04:03.397Z,3.28
2022-09-14T03:06:32.616Z,1.90
2022-09-14T03:09:00.253Z,3.17
2022-09-14T03:11:27.782Z,2.03
2022-09-14T03:13:55.329Z,1.98
2022-09-14T03:16:22.897Z,2.28
2022-09-14T03:18:50.433Z,1.70
2022-09-14T03:21:18.358Z,1.60
2022-09-14T03:23:48.021Z,2.08
2022-09-14T03:26:16.189Z,1.70
2022-09-14T03:28:43.924Z,2.28
2022-09-14T03:31:12.282Z,1.75
2022-09-14T03:33:40.736Z,2.45
2022-09-14T03:36:11.745Z,1.63
2022-09-14T03:38:39.304Z,1.95
2022-09-14T03:41:11.233Z,1.98
2022-09-14T03:43:38.810Z,2.60
2022-09-14T03:46:07.760Z,2.47
2022-09-14T03:48:35.304Z,2.05
2022-09-14T03:51:02.884Z,2.60
2022-09-14T03:53:30.553Z,1.70
2022-09-14T03:55:58.188Z,1.50
2022-09-14T03:58:27.270Z,1.60
2022-09-14T04:00:54.792Z,1.88
2022-09-14T04:03:22.378Z,1.60
2022-09-14T04:05:55.516Z,2.78
2022-09-14T04:08:23.091Z,3.70
2022-09-14T04:10:50.674Z,1.48
2022-09-14T04:13:18.181Z,2.10
2022-09-14T04:15:56.540Z,2.45
2022-09-14T04:18:24.195Z,4.45
2022-09-14T04:20:56.289Z,1.95
2022-09-14T04:23:23.868Z,1.95
2022-09-14T04:25:51.531Z,1.55
2022-09-14T04:28:20.594Z,1.55
2022-09-14T04:30:57.610Z,4.57
2022-09-14T04:33:25.419Z,1.95
2022-09-14T04:36:01.527Z,1.70
2022-09-14T04:38:29.292Z,1.80
2022-09-14T04:40:56.921Z,1.80
2022-09-14T04:43:24.689Z,3.55
2022-09-14T04:45:52.502Z,2.75
2022-09-14T04:48:21.460Z,2.80
2022-09-14T04:50:48.991Z,2.17
2022-09-14T04:53:16.556Z,1.65
2022-09-14T04:55:44.105Z,2.33
2022-09-14T04:58:11.630Z,2.05
2022-09-14T05:00:39.175Z,2.03
2022-09-14T05:03:06.881Z,1.88
2022-09-14T05:05:40.068Z,2.72
2022-09-14T05:08:10.574Z,3.72
2022-09-14T05:10:38.120Z,2.90
2022-09-14T05:13:05.631Z,4.40
2022-09-14T05:15:33.264Z,4.88
2022-09-14T05:18:00.857Z,3.00
2022-09-14T05:20:28.420Z,1.70
2022-09-14T05:22:57.308Z,3.28
2022-09-14T05:25:25.890Z,3.78
2022-09-14T05:27:53.474Z,2.50
2022-09-14T05:30:21.028Z,3.60
2022-09-14T05:32:48.591Z,2.42
2022-09-14T05:35:16.145Z,4.78
2022-09-14T05:37:43.686Z,3.38
2022-09-14T05:40:12.954Z,2.65
2022-09-14T05:42:40.558Z,3.05
2022-09-14T05:45:09.092Z,2.15
2022-09-14T05:47:39.118Z,3.42
2022-09-14T05:50:08.786Z,2.47
2022-09-14T05:52:36.462Z,2.80
2022-09-14T05:55:04.784Z,3.95
2022-09-14T05:57:33.761Z,2.13
2022-09-14T06:00:01.345Z,3.10
2022-09-14T06:02:28.910Z,2.67
2022-09-14T06:04:56.517Z,2.70
2022-09-14T06:07:24.074Z,2.95
2022-09-14T06:09:51.725Z,2.78
2022-09-14T06:12:19.291Z,3.47
2022-09-14T06:14:48.188Z,3.72
2022-09-14T06:17:15.725Z,2.40
2022-09-14T06:19:43.278Z,3.03
2022-09-14T06:22:10.870Z,4.35
2022-09-14T06:24:38.417Z,2.67
2022-09-14T06:27:08.840Z,4.30
2022-09-14T06:29:36.564Z,2.17
2022-09-14T06:32:06.078Z,3.22
2022-09-14T06:34:33.708Z,1.90
2022-09-14T06:37:01.264Z,2.45
2022-09-14T06:39:29.212Z,2.90
2022-09-14T06:41:56.717Z,2.38
2022-09-14T06:44:24.552Z,2.20
2022-09-14T06:46:52.098Z,2.97
2022-09-14T06:49:23.094Z,1.92
2022-09-14T06:51:50.971Z,2.22
2022-09-14T06:54:18.899Z,1.67
2022-09-14T06:56:46.850Z,1.80
2022-09-14T06:59:15.577Z,2.25
2022-09-14T07:01:43.621Z,2.22
2022-09-14T07:04:11.217Z,2.25
2022-09-14T07:06:41.691Z,3.35
2022-09-14T07:09:09.262Z,2.88
2022-09-14T07:11:36.949Z,2.90
2022-09-14T07:14:04.482Z,1.83
2022-09-14T07:16:32.744Z,1.70
2022-09-14T07:19:03.020Z,3.22
2022-09-14T07:21:30.927Z,4.32
2022-09-14T07:23:59.924Z,4.72
2022-09-14T07:26:28.280Z,2.75
2022-09-14T07:28:57.080Z,2.00
2022-09-14T07:31:25.735Z,2.70
2022-09-14T07:33:53.724Z,2.38
2022-09-14T07:36:21.485Z,2.05
2022-09-14T07:38:52.684Z,2.70
2022-09-14T07:41:22.144Z,3.25
2022-09-14T07:43:50.794Z,1.73
2022-09-14T07:46:18.492Z,3.88
2022-09-14T07:48:46.121Z,1.80
2022-09-14T07:51:14.445Z,2.75
2022-09-14T07:53:43.319Z,1.73
2022-09-14T07:56:11.689Z,2.05
2022-09-14T07:58:41.368Z,3.13
2022-09-14T08:01:09.904Z,2.22
2022-09-14T08:03:37.517Z,3.38
2022-09-14T08:06:06.438Z,2.05
2022-09-14T08:08:36.348Z,3.53
2022-09-14T08:11:05.749Z,3.75
2022-09-14T08:13:34.287Z,4.35
2022-09-14T08:16:03.645Z,4.32
2022-09-14T08:18:31.716Z,5.13
2022-09-14T08:21:04.445Z,5.18
2022-09-14T08:23:32.025Z,6.07
2022-09-14T08:26:03.401Z,5.72
2022-09-14T08:28:30.969Z,5.35
2022-09-14T08:31:04.707Z,5.78
2022-09-14T08:33:33.157Z,9.85
2022-09-14T08:36:00.941Z,5.97
2022-09-14T08:38:28.515Z,5.05
2022-09-14T08:40:56.209Z,5.50
2022-09-14T08:43:24.957Z,5.55
2022-09-14T08:45:54.749Z,6.00
2022-09-14T08:48:24.865Z,8.07
2022-09-14T08:50:53.694Z,5.60
2022-09-14T08:53:22.752Z,8.77
2022-09-14T08:55:51.128Z,4.40
2022-09-14T08:58:22.257Z,5.75
2022-09-14T09:00:52.374Z,5.80
2022-09-14T09:03:37.475Z,6.65
2022-09-14T09:06:12.859Z,7.63
2022-09-14T09:08:47.433Z,4.10
2022-09-14T09:11:16.408Z,7.40
2022-09-14T09:13:43.976Z,5.85
2022-09-14T09:16:11.607Z,4.10
2022-09-14T09:18:43.147Z,3.95
2022-09-14T09:21:12.693Z,5.57
2022-09-14T09:23:40.266Z,4.68
2022-09-14T09:26:10.993Z,4.03
2022-09-14T09:28:40.513Z,3.70
2022-09-14T09:31:12.614Z,2.80
2022-09-14T09:33:43.502Z,4.70
2022-09-14T09:36:13.009Z,7.03
2022-09-14T09:38:40.569Z,5.43
2022-09-14T09:41:12.397Z,3.80
2022-09-14T09:43:57.543Z,2.97
2022-09-14T09:46:25.302Z,4.82
2022-09-14T09:48:54.253Z,4.80
2022-09-14T09:51:28.134Z,3.63
2022-09-14T09:53:59.265Z,4.00
2022-09-14T09:56:27.528Z,6.32
2022-09-14T09:58:55.225Z,3.03
2022-09-14T10:01:28.216Z,17.17
2022-09-14T10:04:06.043Z,51.22
2022-09-14T10:06:33.795Z,32.22
2022-09-14T10:09:01.365Z,290.15
2022-09-14T10:11:33.844Z,111.53
2022-09-14T10:14:01.460Z,236.32
2022-09-14T10:16:33.596Z,178.55
2022-09-14T10:19:02.826Z,144.82
2022-09-14T10:21:32.344Z,174.95
2022-09-14T10:24:04.144Z,188.52
2022-09-14T10:26:34.583Z,165.40
2022-09-14T10:29:36.791Z,158.00
2022-09-14T10:32:08.829Z,156.05
2022-09-14T10:34:36.365Z,154.68
2022-09-14T10:37:14.381Z,144.45
2022-09-14T10:39:47.167Z,133.18
2022-09-14T10:42:19.290Z,114.38
2022-09-14T10:44:51.509Z,110.03
2022-09-14T10:47:31.379Z,94.05
2022-09-14T10:50:06.029Z,88.47
2022-09-14T10:52:39.185Z,79.15
2022-09-14T10:55:31.929Z,69.18
2022-09-14T10:58:07.137Z,75.55
2022-09-14T11:00:38.205Z,61.83
2022-09-14T11:03:15.856Z,60.30
2022-09-14T11:05:45.893Z,56.50
2022-09-14T11:08:19.159Z,53.08
2022-09-14T11:10:57.758Z,47.50
2022-09-14T11:13:35.357Z,40.38
2022-09-14T11:16:08.437Z,37.45
2022-09-14T11:18:40.479Z,39.90
2022-09-14T11:21:11.620Z,36.90
2022-09-14T11:23:47.411Z,32.30
2022-09-14T11:26:16.248Z,26.98
2022-09-14T11:28:45.284Z,29.48
2022-09-14T11:31:14.707Z,28.42
2022-09-14T11:33:45.168Z,27.55
2022-09-14T11:36:16.578Z,26.45
2022-09-14T11:38:48.925Z,27.77
2022-09-14T11:41:21.448Z,24.15
2022-09-14T11:43:50.595Z,23.35
2022-09-14T11:46:19.945Z,19.58
2022-09-14T11:48:50.977Z,19.10
2022-09-14T11:51:20.396Z,18.35
2022-09-14T11:53:50.690Z,15.90
2022-09-14T11:56:24.424Z,17.63
2022-09-14T11:58:52.001Z,16.85
2022-09-14T12:01:30.895Z,14.90
2022-09-14T12:04:19.313Z,14.15
2022-09-14T12:06:55.076Z,14.25
2022-09-14T12:09:51.586Z,15.75
2022-09-14T12:12:35.589Z,13.98
2022-09-14T12:15:05.129Z,12.48
2022-09-14T12:17:41.717Z,11.27
2022-09-14T12:20:29.236Z,12.68
2022-09-14T12:23:05.892Z,11.75
2022-09-14T12:25:35.250Z,12.38
2022-09-14T12:28:02.872Z,9.57
2022-09-14T12:31:29.326Z,9.45
2022-09-14T12:34:24.961Z,9.95
2022-09-14T12:37:31.387Z,9.60
2022-09-14T12:40:39.249Z,7.63
2022-09-14T12:43:47.375Z,8.98
2022-09-14T12:46:40.230Z,8.25
2022-09-14T12:49:35.648Z,9.82
2022-09-14T12:52:18.411Z,10.85
2022-09-14T12:54:52.418Z,8.35
2022-09-14T12:57:34.210Z,7.10
2022-09-14T13:00:07.005Z,10.10
2022-09-14T13:03:00.962Z,7.40
2022-09-14T13:05:30.353Z,6.63
2022-09-14T13:07:57.898Z,6.47
2022-09-14T13:10:28.650Z,6.57
2022-09-14T13:12:56.223Z,6.60
2022-09-14T13:15:24.527Z,6.03
2022-09-14T13:18:01.538Z,7.93
2022-09-14T13:20:29.465Z,7.53
2022-09-14T13:22:56.995Z,6.43
2022-09-14T13:25:34.180Z,6.43
2022-09-14T13:28:03.319Z,7.05
2022-09-14T13:30:31.466Z,4.97
2022-09-14T13:33:00.400Z,5.65
2022-09-14T13:35:30.900Z,5.78
2022-09-14T13:37:59.282Z,5.68
2022-09-14T13:40:29.208Z,5.50
2022-09-14T13:42:56.829Z,6.63
2022-09-14T13:45:24.528Z,4.68
2022-09-14T13:47:53.100Z,10.65
2022-09-14T13:50:23.517Z,7.43
2022-09-14T13:53:01.866Z,7.05
2022-09-14T13:55:43.423Z,4.40
2022-09-14T13:58:16.484Z,7.38
2022-09-14T14:00:52.525Z,5.70
2022-09-14T14:03:26.086Z,4.90
2022-09-14T14:05:55.054Z,4.65
2022-09-14T14:08:32.170Z,5.75
2022-09-14T14:11:01.518Z,5.15
2022-09-14T14:13:31.512Z,8.73
2022-09-14T14:16:14.728Z,7.78
2022-09-14T14:18:42.932Z,11.27
2022-09-14T14:21:17.401Z,6.43
2022-09-14T14:24:09.250Z,6.47
2022-09-14T14:26:32.712Z,7.13
2022-09-14T14:29:08.473Z,4.82
2022-09-14T14:31:36.152Z,5.93
2022-09-14T14:34:12.185Z,6.25
2022-09-14T14:36:41.064Z,5.05
2022-09-14T14:39:08.620Z,5.93
2022-09-14T14:41:36.161Z,3.30
2022-09-14T14:44:04.008Z,6.15
2022-09-14T14:46:31.888Z,5.60
2022-09-14T14:48:59.428Z,6.28
2022-09-14T14:51:26.958Z,5.20
2022-09-14T14:53:56.050Z,6.38
2022-09-14T14:56:23.721Z,3.40
2022-09-14T14:58:51.438Z,4.40
2022-09-14T15:01:19.115Z,3.88
2022-09-14T15:03:47.035Z,3.10
2022-09-14T15:06:16.720Z,3.80
2022-09-14T15:08:44.488Z,4.60
2022-09-14T15:11:16.765Z,6.53
2022-09-14T15:13:44.519Z,4.45
2022-09-14T15:16:12.112Z,3.92
2022-09-14T15:18:39.715Z,4.90
2022-09-14T15:21:07.260Z,4.88
2022-09-14T15:23:34.864Z,3.97
2022-09-14T15:26:02.399Z,4.10
2022-09-14T15:28:31.585Z,3.25
2022-09-14T15:30:59.396Z,6.20
2022-09-14T15:33:27.075Z,5.57
2022-09-14T15:35:58.053Z,2.58
2022-09-14T15:38:25.731Z,5.10
2022-09-14T15:40:53.580Z,3.85
2022-09-14T15:43:21.103Z,5.72
2022-09-14T15:45:50.147Z,3.63
2022-09-14T15:48:18.420Z,4.53
2022-09-14T15:50:47.568Z,6.05
2022-09-14T15:53:16.475Z,4.38
2022-09-14T15:55:44.769Z,4.13
2022-09-14T15:58:12.300Z,7.43
2022-09-14T16:00:43.573Z,3.97
2022-09-14T16:03:12.907Z,3.28
2022-09-14T16:05:40.527Z,5.38
2022-09-14T16:08:08.160Z,5.30
2022-09-14T16:10:35.711Z,3.00
2022-09-14T16:13:03.273Z,4.90
2022-09-14T16:15:30.952Z,3.40
2022-09-14T16:17:58.599Z,4.72
2022-09-14T16:20:27.873Z,5.95
2022-09-14T16:22:55.467Z,5.72
2022-09-14T16:25:23.024Z,5.18
2022-09-14T16:27:50.611Z,3.80
2022-09-14T16:30:18.210Z,4.45
2022-09-14T16:32:45.776Z,3.95
2022-09-14T16:35:13.305Z,4.13
2022-09-14T16:37:42.173Z,5.43
2022-09-14T16:40:11.768Z,5.03
2022-09-14T16:42:39.481Z,5.35
2022-09-14T16:45:08.573Z,4.95
2022-09-14T16:47:36.124Z,4.40
2022-09-14T16:50:03.724Z,3.28
2022-09-14T16:52:31.288Z,5.50
2022-09-14T16:55:00.164Z,4.22
2022-09-14T16:57:29.840Z,4.40
2022-09-14T16:59:57.380Z,3.03
2022-09-14T17:02:25.002Z,5.18
2022-09-14T17:04:52.740Z,4.85
2022-09-14T17:07:22.233Z,3.33
2022-09-14T17:09:49.804Z,2.53
2022-09-14T17:12:18.740Z,4.07
2022-09-14T17:14:47.715Z,2.47
2022-09-14T17:17:15.829Z,5.03
2022-09-14T17:19:43.879Z,3.72
2022-09-14T17:22:11.492Z,3.42
2022-09-14T17:24:39.930Z,2.33
2022-09-14T17:27:07.473Z,5.03
2022-09-14T17:29:39.617Z,4.00
2022-09-14T17:32:10.142Z,3.15
2022-09-14T17:34:40.310Z,3.22
2022-09-14T17:37:07.837Z,4.03
2022-09-14T17:39:35.371Z,3.92
2022-09-14T17:42:02.940Z,3.88
2022-09-14T17:44:31.768Z,3.28
2022-09-14T17:47:01.182Z,3.78
2022-09-14T17:49:29.421Z,4.10
2022-09-14T17:51:57.584Z,3.85
2022-09-14T17:54:25.637Z,3.10
2022-09-14T17:56:53.620Z,2.35
2022-09-14T17:59:21.468Z,4.55
2022-09-14T18:01:51.421Z,4.32
2022-09-14T18:04:20.498Z,2.83
2022-09-14T18:06:49.566Z,3.42
2022-09-14T18:09:19.852Z,3.47
2022-09-14T18:11:47.705Z,4.20
2022-09-14T18:14:16.140Z,5.22
2022-09-14T18:16:44.175Z,4.85
2022-09-14T18:19:11.955Z,2.10
2022-09-14T18:21:41.707Z,3.75
2022-09-14T18:24:10.334Z,2.70
2022-09-14T18:26:38.599Z,3.60
2022-09-14T18:29:06.174Z,3.42
2022-09-14T18:31:34.050Z,3.63
2022-09-14T18:34:01.890Z,3.95
2022-09-14T18:36:30.330Z,2.47
2022-09-14T18:39:00.330Z,3.03
2022-09-14T18:41:29.045Z,2.70
2022-09-14T18:43:56.690Z,2.72
2022-09-14T18:46:28.142Z,2.35
2022-09-14T18:48:57.510Z,4.03
2022-09-14T18:51:25.049Z,3.00
2022-09-14T18:53:56.733Z,4.60
2022-09-14T18:56:25.622Z,4.85
2022-09-14T18:58:53.151Z,8.20
2022-09-14T19:01:20.838Z,4.38
2022-09-14T19:03:48.743Z,3.30
2022-09-14T19:06:17.061Z,2.95
2022-09-14T19:08:44.801Z,3.75
2022-09-14T19:11:13.801Z,4.25
2022-09-14T19:13:42.712Z,2.33
2022-09-14T19:16:11.662Z,4.97
2022-09-14T19:18:39.525Z,2.70
2022-09-14T19:21:07.656Z,4.13
2022-09-14T19:23:35.486Z,2.67
2022-09-14T19:26:05.558Z,2.20
2022-09-14T19:28:33.357Z,3.65
2022-09-14T19:31:05.195Z,4.75
2022-09-14T19:33:32.737Z,4.43
2022-09-14T19:36:03.560Z,1.67
2022-09-14T19:38:31.102Z,4.15
2022-09-14T19:40:58.737Z,3.25
2022-09-14T19:43:26.303Z,3.33
2022-09-14T19:45:53.920Z,2.00
2022-09-14T19:48:22.874Z,2.00
2022-09-14T19:50:50.392Z,6.10
2022-09-14T19:53:17.924Z,2.75
2022-09-14T19:55:45.445Z,5.10
2022-09-14T19:58:31.612Z,3.72
2022-09-14T20:00:59.462Z,2.20
2022-09-14T20:03:28.376Z,2.83
2022-09-14T20:06:02.007Z,1.98
2022-09-14T20:08:29.775Z,2.35
2022-09-14T20:10:57.303Z,2.67
2022-09-14T20:13:24.917Z,3.15
2022-09-14T20:15:52.486Z,2.30
2022-09-14T20:18:20.143Z,4.97
2022-09-14T20:20:49.016Z,5.10
2022-09-14T20:23:16.558Z,3.75
2022-09-14T20:25:44.112Z,2.28
2022-09-14T20:28:11.666Z,2.45
2022-09-14T20:30:39.191Z,3.25
2022-09-14T20:33:06.728Z,3.42
2022-09-14T20:35:34.949Z,3.88
2022-09-14T20:38:03.825Z,2.13
2022-09-14T20:40:31.416Z,2.40
2022-09-14T20:42:59.246Z,2.67
2022-09-14T20:45:26.793Z,4.00
2022-09-14T20:47:54.490Z,2.83
2022-09-14T20:50:22.008Z,4.53
2022-09-14T20:52:49.541Z,2.92
2022-09-14T20:55:18.449Z,11.43
2022-09-14T20:57:45.993Z,2.30
2022-09-14T21:00:14.514Z,2.05
2022-09-14T21:02:42.090Z,1.95
2022-09-14T21:05:10.222Z,2.03
2022-09-14T21:07:37.749Z,4.25
2022-09-14T21:10:06.038Z,2.30
2022-09-14T21:12:34.933Z,2.70
2022-09-14T21:15:02.539Z,2.05
2022-09-14T21:17:30.091Z,2.75
2022-09-14T21:19:57.793Z,2.55
2022-09-14T21:22:25.338Z,2.00
2022-09-14T21:24:52.860Z,2.08
2022-09-14T21:27:20.460Z,2.38
2022-09-14T21:29:50.157Z,2.63
2022-09-14T21:32:17.737Z,3.15
2022-09-14T21:34:45.260Z,2.50
2022-09-14T21:37:12.804Z,3.08
2022-09-14T21:39:40.328Z,1.65
2022-09-14T21:42:08.192Z,2.45
2022-09-14T21:44:37.735Z,2.40
2022-09-14T21:47:07.140Z,2.55
2022-09-14T21:49:34.664Z,2.55
2022-09-14T21:52:02.526Z,3.20
2022-09-14T21:54:30.057Z,2.22
2022-09-14T21:56:57.574Z,3.13
2022-09-14T21:59:25.102Z,3.28
2022-09-14T22:01:52.902Z,2.63
2022-09-14T22:04:22.945Z,2.00
2022-09-14T22:06:51.363Z,2.75
2022-09-14T22:09:20.296Z,3.28
2022-09-14T22:11:48.262Z,2.65
2022-09-14T22:14:18.050Z,2.00
2022-09-14T22:16:45.872Z,2.05
2022-09-14T22:19:16.340Z,2.10
2022-09-14T22:21:45.293Z,2.47
2022-09-14T22:24:15.644Z,3.00
2022-09-14T22:26:43.204Z,2.45
2022-09-14T22:29:10.765Z,2.45
2022-09-14T22:31:38.496Z,2.22
2022-09-14T22:34:06.170Z,2.22
2022-09-14T22:36:33.913Z,2.60
2022-09-14T22:39:03.097Z,1.98
2022-09-14T22:41:30.637Z,2.60
2022-09-14T22:43:58.171Z,2.05
2022-09-14T22:46:25.816Z,1.80
2022-09-14T22:48:53.617Z,1.70
2022-09-14T22:51:22.099Z,2.30
2022-09-14T22:53:49.673Z,2.75
2022-09-14T22:56:19.507Z,2.03
2022-09-14T22:58:47.584Z,2.53
2022-09-14T23:01:16.496Z,4.00
2022-09-14T23:03:44.245Z,3.30
2022-09-14T23:06:11.945Z,1.70
2022-09-14T23:08:39.577Z,1.73
2022-09-14T23:11:08.297Z,2.70
2022-09-14T23:13:37.417Z,2.05
2022-09-14T23:16:10.348Z,2.10
2022-09-14T23:18:37.928Z,2.15
2022-09-14T23:21:06.004Z,3.35
2022-09-14T23:23:33.549Z,2.10
2022-09-14T23:26:04.575Z,2.80
2022-09-14T23:28:32.152Z,2.03
2022-09-14T23:31:01.132Z,2.05
2022-09-14T23:33:28.965Z,2.13
2022-09-14T23:35:56.657Z,2.58
2022-09-14T23:38:24.330Z,3.13
2022-09-14T23:40:51.993Z,1.73
2022-09-14T23:43:19.720Z,1.80
2022-09-14T23:45:47.804Z,1.95
2022-09-14T23:48:16.758Z,1.92
2022-09-14T23:50:44.597Z,1.92
2022-09-14T23:53:12.187Z,1.83
2022-09-14T23:55:39.744Z,2.53
2022-09-14T23:58:07.306Z,2.20
